Time;durP1;ratioP1;P1;durP2;ratioP2;P2;SDS_P1;SDS_P2;PMS_P1;PMS_P2;Temp;Humidity;BMP_temperature;BMP_pressure;BME280_temperature;BME280_humidity;BME280_pressure;Samples;Min_cycle;Max_cycle;Signal;HPM_P1;HPM_P2
2022/08/17 00:02:15;;;;;;;5.40;4.20;;;;;;;17.03;100.00;96201.09;10532179;28;20685;-76
2022/08/17 00:07:15;;;;;;;6.10;4.35;;;;;;;16.96;100.00;96195.84;10541300;28;20757;-76
2022/08/17 00:12:16;;;;;;;5.43;4.43;;;;;;;16.89;100.00;96210.91;10541078;28;20191;-76
2022/08/17 00:17:17;;;;;;;11.35;3.90;;;;;;;16.93;100.00;96204.19;10523695;28;20236;-76
2022/08/17 00:22:17;;;;;;;9.63;4.72;;;;;;;16.81;100.00;96209.28;10540576;28;20209;-76
2022/08/17 00:27:18;;;;;;;8.30;4.40;;;;;;;16.77;100.00;96203.63;10541146;28;20230;-75
2022/08/17 00:32:18;;;;;;;5.55;4.45;;;;;;;16.76;100.00;96209.91;10505741;28;20186;-75
2022/08/17 00:37:18;;;;;;;6.93;4.22;;;;;;;16.68;100.00;96201.41;10540264;28;20206;-76
2022/08/17 00:42:19;;;;;;;5.82;4.10;;;;;;;16.62;100.00;96205.69;10522083;28;20236;-76
2022/08/17 00:47:19;;;;;;;6.40;4.53;;;;;;;16.47;100.00;96203.28;10539860;28;20230;-76
2022/08/17 00:52:22;;;;;;;7.25;4.38;;;;;;;16.48;100.00;96206.75;10539689;28;20279;-76
2022/08/17 00:57:32;;;;;;;7.45;4.13;;;;;;;16.43;100.00;96202.06;10521356;28;20314;-76
2022/08/17 01:02:37;;;;;;;6.05;4.22;;;;;;;16.35;100.00;96205.72;10538206;28;20618;-76
2022/08/17 01:13:46;;;;;;;6.07;3.83;;;;;;;16.31;100.00;96208.97;10538003;28;20188;-76
2022/08/17 01:18:48;;;;;;;6.60;3.80;;;;;;;16.19;100.00;96206.97;10537731;28;20642;-76
2022/08/17 01:23:49;;;;;;;6.25;4.10;;;;;;;16.02;100.00;96205.75;10519538;28;20247;-76
2022/08/17 01:28:49;;;;;;;7.78;4.28;;;;;;;15.97;100.00;96209.03;10537150;28;20222;-76
2022/08/17 01:33:50;;;;;;;7.85;4.25;;;;;;;15.94;100.00;96214.72;10519522;28;20203;-76
2022/08/17 01:38:50;;;;;;;7.68;4.32;;;;;;;15.80;100.00;96207.78;10537797;28;20659;-76
2022/08/17 01:43:55;;;;;;;6.53;4.38;;;;;;;15.68;100.00;96218.06;10537841;28;20190;-76
2022/08/17 01:48:57;;;;;;;5.63;3.47;;;;;;;15.73;100.00;96213.03;10519585;28;20219;-76
2022/08/17 01:54:00;;;;;;;4.65;4.20;;;;;;;15.66;100.00;96207.72;10536902;28;20564;-76
2022/08/17 01:59:01;;;;;;;5.70;4.25;;;;;;;15.58;100.00;96221.13;10519038;28;20650;-76
2022/08/17 02:04:04;;;;;;;7.80;4.28;;;;;;;15.48;100.00;96232.06;10536147;28;20194;-76
2022/08/17 02:09:06;;;;;;;4.25;3.85;;;;;;;15.51;100.00;96225.56;10536399;28;20682;-76
2022/08/17 02:14:08;;;;;;;5.15;3.95;;;;;;;15.48;100.00;96221.50;10536428;28;20669;-76
2022/08/17 02:19:12;;;;;;;7.65;4.22;;;;;;;15.44;100.00;96214.19;10536339;28;20565;-76
2022/08/17 02:24:17;;;;;;;6.53;4.30;;;;;;;15.39;100.00;96217.44;10536346;28;20545;-76
2022/08/17 02:29:18;;;;;;;5.45;3.65;;;;;;;15.31;100.00;96207.88;10535967;28;20775;-76
2022/08/17 02:34:18;;;;;;;4.57;4.18;;;;;;;15.30;100.00;96211.50;10535592;28;20238;-76
2022/08/17 02:39:19;;;;;;;8.45;4.15;;;;;;;15.28;100.00;96204.78;10535742;28;20204;-76
2022/08/17 02:44:19;;;;;;;8.65;4.75;;;;;;;15.19;100.00;96206.81;10535317;28;20193;-76
2022/08/17 02:49:20;;;;;;;6.93;4.65;;;;;;;15.14;100.00;96206.59;10535019;28;21094;-76
2022/08/17 02:54:20;;;;;;;5.53;4.15;;;;;;;15.10;100.00;96205.34;10534700;28;20686;-76
2022/08/17 02:59:21;;;;;;;6.30;4.07;;;;;;;15.06;100.00;96202.28;10534608;28;20589;-76
2022/08/17 03:04:21;;;;;;;9.68;4.50;;;;;;;15.04;100.00;96208.75;10511295;28;20621;-76
2022/08/17 03:09:22;;;;;;;4.88;4.28;;;;;;;14.98;100.00;96211.19;10488691;28;20225;-76
2022/08/17 03:14:22;;;;;;;5.70;4.63;;;;;;;15.00;100.00;96202.28;10488333;28;20664;-76
2022/08/17 03:19:22;;;;;;;4.35;3.95;;;;;;;15.07;100.00;96203.94;10489062;28;20715;-76
2022/08/17 03:24:23;;;;;;;4.22;3.83;;;;;;;15.08;100.00;96204.72;10489212;28;20286;-76
2022/08/17 03:29:23;;;;;;;8.23;4.85;;;;;;;14.81;100.00;96196.72;10470849;28;20215;-76
2022/08/17 03:34:24;;;;;;;6.15;4.25;;;;;;;14.79;100.00;96204.81;10488374;28;20605;-76
2022/08/17 03:39:24;;;;;;;7.22;4.20;;;;;;;14.68;100.00;96196.66;10488948;28;20234;-76
2022/08/17 03:44:24;;;;;;;5.55;4.30;;;;;;;14.74;100.00;96193.22;10488386;28;20277;-76
2022/08/17 04:00:03;;;;;;;4.57;4.07;;;;;;;14.59;100.00;96194.16;10488096;28;20183;-76
2022/08/17 04:05:13;;;;;;;8.68;4.22;;;;;;;14.63;100.00;96192.75;10491876;28;20206;-76
2022/08/17 04:10:14;;;;;;;5.70;4.50;;;;;;;14.65;100.00;96197.03;10491186;28;20227;-76
2022/08/17 04:15:17;;;;;;;4.82;4.35;;;;;;;14.58;100.00;96195.16;10491290;28;20273;-76
2022/08/17 04:20:19;;;;;;;5.57;4.18;;;;;;;14.54;100.00;96191.25;10491139;28;20206;-76
2022/08/17 04:25:20;;;;;;;7.15;4.45;;;;;;;14.50;100.00;96207.66;10476458;28;20249;-77
2022/08/17 04:30:21;;;;;;;8.77;3.92;;;;;;;14.51;100.00;96209.31;10480592;28;20215;-76
2022/08/17 04:35:25;;;;;;;6.20;4.65;;;;;;;14.56;100.00;96210.34;10463958;28;20306;-76
2022/08/17 04:45:51;;;;;;;7.10;4.13;;;;;;;14.62;100.00;96206.97;10497961;28;20191;-76
2022/08/17 04:50:51;;;;;;;5.57;4.05;;;;;;;14.65;100.00;96216.28;10497886;28;20213;-76
2022/08/17 04:55:52;;;;;;;4.30;3.88;;;;;;;14.68;100.00;96229.09;10496478;28;20711;-75
2022/08/17 05:00:52;;;;;;;7.43;4.57;;;;;;;14.88;100.00;96210.72;10497349;28;20187;-76
2022/08/17 05:05:53;;;;;;;8.82;4.45;;;;;;;15.03;100.00;96225.63;10497362;28;20658;-76
2022/08/17 05:10:53;;;;;;;10.98;4.30;;;;;;;15.15;100.00;96234.59;10497299;28;20602;-76
2022/08/17 05:15:56;;;;;;;7.57;4.20;;;;;;;15.38;100.00;96231.63;10497119;28;20563;-76
2022/08/17 05:20:57;;;;;;;10.82;4.30;;;;;;;15.49;100.00;96228.41;10496596;28;20237;-75
2022/08/17 05:25:57;;;;;;;4.55;4.00;;;;;;;15.49;100.00;96232.88;10496821;28;20285;-76
2022/08/17 05:31:00;;;;;;;4.13;3.72;;;;;;;15.52;100.00;96225.38;10496487;28;20195;-75
2022/08/17 05:36:02;;;;;;;5.38;4.00;;;;;;;15.56;100.00;96230.25;10495199;28;20211;-75
2022/08/17 05:41:05;;;;;;;5.53;4.40;;;;;;;15.66;100.00;96231.47;10495024;28;20659;-76
2022/08/17 05:46:26;;;;;;;7.93;4.47;;;;;;;16.12;100.00;96229.13;10495581;28;20210;-75
2022/08/17 05:51:32;;;;;;;7.50;4.72;;;;;;;16.56;100.00;96225.03;10478087;28;20244;-76
2022/08/17 05:56:46;;;;;;;6.45;3.63;;;;;;;17.23;100.00;96219.56;10494902;28;20703;-76
2022/08/17 06:02:16;;;;;;;5.00;4.20;;;;;;;17.69;100.00;96215.00;10495625;28;20198;-76
2022/08/17 06:07:22;;;;;;;3.90;3.53;;;;;;;18.61;95.98;96198.59;10484356;28;20329;-76
2022/08/17 06:12:36;;;;;;;5.78;4.07;;;;;;;19.36;91.19;96200.22;10516404;28;20654;-76
2022/08/17 06:17:36;;;;;;;6.13;3.30;;;;;;;20.00;86.80;96192.56;10513952;28;20210;-76
2022/08/17 06:22:41;;;;;;;7.07;3.67;;;;;;;20.47;84.91;96192.59;10518719;28;20719;-76
2022/08/17 06:27:42;;;;;;;5.82;3.58;;;;;;;20.76;81.59;96181.22;10517835;28;20227;-76
2022/08/17 06:32:45;;;;;;;8.38;3.83;;;;;;;21.05;80.08;96167.97;10517949;28;20202;-77
2022/08/17 06:37:50;;;;;;;9.38;4.05;;;;;;;21.18;79.22;96178.34;10500075;28;20257;-75
2022/08/17 06:43:18;;;;;;;5.75;3.88;;;;;;;22.83;74.00;96140.97;10535781;28;20191;-75
2022/08/17 06:48:52;;;;;;;5.78;3.45;;;;;;;23.36;71.78;96127.94;10535379;28;20257;-75
2022/08/17 06:54:01;;;;;;;5.15;3.38;;;;;;;24.49;68.09;96102.84;10534857;28;20234;-76
2022/08/17 06:59:01;;;;;;;3.70;3.40;;;;;;;24.88;65.33;96091.78;10535055;28;20183;-75
2022/08/17 07:04:05;;;;;;;4.10;3.70;;;;;;;25.47;62.70;96079.06;10535126;28;20673;-76
2022/08/17 07:09:11;;;;;;;6.55;3.50;;;;;;;25.49;62.27;96076.13;10516853;28;20301;-76
2022/08/17 07:14:26;;;;;;;5.55;3.30;;;;;;;25.94;61.89;96077.97;10535147;28;20561;-76
2022/08/17 07:19:30;;;;;;;3.20;2.90;;;;;;;27.27;57.08;96030.16;10516942;28;20213;-75
2022/08/17 07:24:38;;;;;;;3.65;3.15;;;;;;;28.89;52.90;95999.44;10535083;28;20193;-77
2022/08/17 07:29:45;;;;;;;8.90;3.05;;;;;;;28.57;51.59;95971.28;10517340;28;20230;-77
2022/08/17 07:35:09;;;;;;;3.85;2.85;;;;;;;28.79;50.38;95962.63;10516036;28;20203;-77
2022/08/17 07:40:18;;;;;;;5.07;2.88;;;;;;;29.33;48.82;95945.09;10534292;28;20668;-77
2022/08/17 07:50:38;;;;;;;2.78;2.45;;;;;;;30.72;47.02;95977.56;10533620;28;20229;-77
2022/08/17 07:55:40;;;;;;;4.20;2.70;;;;;;;31.06;45.01;95933.00;10546141;28;20226;-77
2022/08/17 08:00:40;;;;;;;4.03;2.63;;;;;;;30.90;45.32;95937.13;10540027;28;20201;-76
2022/08/17 08:05:56;;;;;;;4.63;2.93;;;;;;;31.06;43.97;95914.06;10502047;28;20187;-77
2022/08/17 08:11:05;;;;;;;2.92;2.40;;;;;;;31.57;42.02;95874.06;10517222;28;20451;-76
2022/08/17 08:16:19;;;;;;;3.20;2.90;;;;;;;30.56;42.41;95852.75;10506004;28;20226;-75
2022/08/17 08:21:50;;;;;;;11.85;3.20;;;;;;;30.14;45.38;95921.47;10499898;28;20199;-75
2022/08/17 08:26:59;;;;;;;4.53;2.30;;;;;;;30.29;41.85;95832.00;10479096;28;20301;-75
2022/08/17 08:32:33;;;;;;;3.22;2.90;;;;;;;30.24;45.17;95935.56;10519336;28;20666;-75
2022/08/17 08:37:44;;;;;;;5.30;2.72;;;;;;;29.11;51.13;96036.59;10531867;28;20581;-75
2022/08/17 08:42:55;;;;;;;4.90;2.80;;;;;;;27.49;55.54;96098.91;10515131;28;20205;-74
2022/08/17 08:48:10;;;;;;;6.25;3.15;;;;;;;27.44;56.20;96104.31;10519984;28;20751;-74
2022/08/17 08:53:20;;;;;;;7.82;2.90;;;;;;;28.47;53.31;96067.31;10517443;28;20318;-74
2022/08/17 08:58:36;;;;;;;3.80;2.80;;;;;;;29.12;47.99;95970.78;10532789;28;20265;-74
2022/08/17 09:03:51;;;;;;;7.38;3.25;;;;;;;28.28;50.89;96004.50;10512151;28;20244;-74
2022/08/17 09:09:10;;;;;;;5.45;3.22;;;;;;;28.65;51.70;96040.72;10536930;28;20230;-74
2022/08/17 09:14:12;;;;;;;4.32;3.28;;;;;;;28.89;50.30;96026.41;10534853;28;20190;-74
2022/08/17 09:19:29;;;;;;;5.20;3.38;;;;;;;28.53;53.92;96110.38;10517848;28;20191;-74
2022/08/17 09:24:43;;;;;;;5.70;3.17;;;;;;;28.08;54.40;96097.09;10518209;28;20240;-75
2022/08/17 09:29:49;;;;;;;7.68;3.28;;;;;;;28.00;56.60;96135.41;10518452;28;20210;-75
2022/08/17 09:34:54;;;;;;;7.63;3.35;;;;;;;27.53;57.94;96149.19;10516722;28;20302;-75
2022/08/17 09:40:10;;;;;;;6.70;3.22;;;;;;;28.09;56.99;96129.13;10514939;28;20214;-75
2022/08/17 09:45:27;;;;;;;5.25;3.05;;;;;;;28.46;54.64;96098.03;10493113;28;20194;-75
2022/08/17 09:50:35;;;;;;;10.73;3.13;;;;;;;28.71;55.40;96123.13;10475241;28;20226;-74
2022/08/17 09:56:14;;;;;;;2.95;2.58;;;;;;;29.50;44.12;95889.75;10492415;28;20231;-74
2022/08/17 10:01:30;;;;;;;4.30;2.25;;;;;;;29.94;41.46;95822.75;10475705;28;20227;-75
2022/08/17 10:06:36;;;;;;;4.18;2.42;;;;;;;30.21;41.48;95846.22;10483874;28;20222;-74
2022/08/17 10:17:31;;;;;;;6.10;2.70;;;;;;;33.52;36.03;95831.19;10404862;28;20218;-75
2022/08/17 10:28:04;;;;;;;5.22;2.30;;;;;;;29.96;40.22;95815.19;10534234;28;20233;-75
2022/08/17 10:33:15;;;;;;;2.67;2.15;;;;;;;30.15;38.76;95796.09;10515031;28;20187;-75
2022/08/17 10:38:37;;;;;;;3.20;2.38;;;;;;;30.18;38.88;95801.69;10515155;28;20207;-76
2022/08/17 10:44:01;;;;;;;9.85;2.35;;;;;;;30.08;41.06;95860.56;10533087;28;20194;-75
2022/08/17 10:49:16;;;;;;;3.33;2.03;;;;;;;30.35;39.33;95821.84;10514723;28;20264;-75
2022/08/17 10:54:22;;;;;;;4.15;2.20;;;;;;;32.47;37.16;95863.94;10532667;28;20253;-75
2022/08/17 10:59:34;;;;;;;4.57;2.10;;;;;;;32.93;34.13;95739.63;10532731;28;20195;-75
2022/08/17 11:05:10;;;;;;;4.72;2.00;;;;;;;31.93;35.66;95762.00;10533146;28;20186;-76
2022/08/17 11:10:22;;;;;;;4.57;2.25;;;;;;;34.28;34.04;95830.31;10518563;28;20317;-73
2022/08/17 11:15:48;;;;;;;2.05;1.83;;;;;;;34.46;32.64;95762.97;10532637;28;21011;-75
2022/08/17 11:21:12;;;;;;;5.72;2.28;;;;;;;31.10;37.10;95749.19;10473074;28;20581;-75
2022/08/17 11:26:24;;;;;;;2.42;2.15;;;;;;;32.97;37.63;95868.88;10490413;28;20666;-75
2022/08/17 11:31:32;;;;;;;3.83;2.25;;;;;;;33.07;35.20;95780.88;10489900;28;20191;-75
2022/08/17 11:36:44;;;;;;;3.53;1.90;;;;;;;32.72;34.33;95748.44;10489794;28;20206;-76
2022/08/17 11:41:54;;;;;;;6.05;2.25;;;;;;;32.92;34.44;95743.44;10471251;28;20237;-76
2022/08/17 11:52:42;;;;;;;5.35;2.03;;;;;;;35.45;31.55;95787.69;10474066;28;20187;-76
2022/08/17 11:57:44;;;;;;;4.35;2.20;;;;;;;34.32;32.75;95781.50;10490070;28;20245;-75
2022/08/17 12:02:47;;;;;;;4.60;2.55;;;;;;;33.66;32.50;95711.44;10470658;28;20203;-75
2022/08/17 12:08:06;;;;;;;3.50;2.05;;;;;;;32.81;33.33;95688.75;10471599;28;20216;-75
2022/08/17 12:13:13;;;;;;;2.55;2.05;;;;;;;35.54;31.38;95769.31;10470709;28;20195;-76
2022/08/17 12:18:29;;;;;;;3.08;2.10;;;;;;;33.43;32.54;95695.47;10491062;28;20182;-76
2022/08/17 12:23:51;;;;;;;5.68;2.60;;;;;;;33.42;33.73;95751.69;10512604;28;20284;-76
2022/08/17 12:29:15;;;;;;;2.40;1.98;;;;;;;33.22;33.14;95709.81;10496245;28;20210;-76
2022/08/17 12:34:34;;;;;;;6.13;2.50;;;;;;;33.20;33.05;95711.25;10523990;28;20383;-77
2022/08/17 12:39:36;;;;;;;2.10;1.90;;;;;;;34.29;32.37;95727.81;10495002;28;20656;-76
2022/08/17 12:44:42;;;;;;;4.80;2.05;;;;;;;33.97;32.66;95730.13;10508840;28;20832;-76
2022/08/17 12:49:45;;;;;;;3.97;2.38;;;;;;;33.76;32.79;95722.75;10515474;28;20213;-76
2022/08/17 12:54:52;;;;;;;4.55;2.42;;;;;;;32.81;33.76;95711.22;10542023;28;20230;-76
2022/08/17 12:59:57;;;;;;;2.63;2.28;;;;;;;32.44;34.61;95691.84;10516758;28;20710;-76
2022/08/17 13:04:59;;;;;;;5.43;2.30;;;;;;;30.74;35.96;95650.09;10518214;28;20548;-75
2022/08/17 13:10:00;;;;;;;4.43;2.30;;;;;;;32.97;33.14;95702.53;10519414;28;20226;-77
2022/08/17 13:15:01;;;;;;;3.55;2.30;;;;;;;35.80;30.65;95749.09;10518790;28;20185;-77
2022/08/17 13:20:04;;;;;;;2.65;2.28;;;;;;;31.85;34.13;95659.84;10517838;28;20194;-76
2022/08/17 13:25:05;;;;;;;5.32;2.28;;;;;;;32.13;34.50;95702.88;10536358;28;20190;-76
2022/08/17 13:30:10;;;;;;;4.32;2.20;;;;;;;31.15;34.44;95637.31;10536136;28;20229;-76
2022/08/17 13:35:34;;;;;;;11.25;2.35;;;;;;;32.42;33.59;95691.38;10518036;28;20686;-76
2022/08/17 13:40:51;;;;;;;7.18;2.35;;;;;;;32.25;34.50;95716.59;10535433;28;20196;-76
2022/08/17 13:45:52;;;;;;;3.95;2.35;;;;;;;32.33;33.38;95685.97;10517000;28;20706;-76
2022/08/17 13:50:55;;;;;;;3.50;2.10;;;;;;;32.52;33.91;95715.44;10533261;28;20230;-76
2022/08/17 13:56:00;;;;;;;4.40;2.80;;;;;;;31.76;34.31;95696.97;10534158;28;20699;-76
2022/08/17 14:01:33;;;;;;;7.32;2.10;;;;;;;30.57;35.60;95667.03;10516533;28;20194;-76
2022/08/17 14:06:45;;;;;;;2.22;1.90;;;;;;;32.68;32.78;95690.53;10535272;28;20261;-76
2022/08/17 14:11:47;;;;;;;4.57;1.90;;;;;;;33.54;31.47;95695.88;10534380;28;20210;-73
2022/08/17 14:16:48;;;;;;;3.20;1.90;;;;;;;32.54;34.01;95729.47;10534920;28;20191;-73
2022/08/17 14:21:49;;;;;;;10.23;2.30;;;;;;;32.82;33.34;95709.31;10534322;28;20187;-74
2022/08/17 14:26:53;;;;;;;4.38;2.30;;;;;;;34.01;31.62;95714.72;10515072;28;20222;-74
2022/08/17 14:31:54;;;;;;;3.13;2.08;;;;;;;35.17;29.76;95686.81;10533700;28;20224;-74
2022/08/17 14:36:55;;;;;;;5.88;2.20;;;;;;;33.61;31.10;95611.94;10513968;28;20209;-74
2022/08/17 14:41:57;;;;;;;7.85;2.75;;;;;;;36.64;28.08;95694.94;10533701;28;20261;-74
2022/08/17 14:46:57;;;;;;;5.03;2.35;;;;;;;32.87;33.34;95649.47;10515722;28;20287;-75
2022/08/17 14:51:58;;;;;;;5.20;2.65;;;;;;;33.37;32.60;95667.72;10533204;28;20270;-74
2022/08/17 14:56:59;;;;;;;4.65;2.40;;;;;;;33.65;31.37;95659.06;10506868;28;20226;-74
2022/08/17 15:02:00;;;;;;;6.95;2.10;;;;;;;35.96;29.18;95700.13;10533246;28;20647;-74
2022/08/17 15:07:00;;;;;;;6.20;2.33;;;;;;;38.96;25.87;95726.88;10532541;28;20214;-75
2022/08/17 15:12:01;;;;;;;2.33;1.83;;;;;;;35.75;29.20;95655.88;10532812;28;20661;-74
2022/08/17 15:17:02;;;;;;;4.78;1.90;;;;;;;35.76;28.60;95647.34;10532271;28;20668;-74
2022/08/17 15:22:02;;;;;;;2.38;1.98;;;;;;;34.38;30.48;95643.41;10532199;28;20194;-77
2022/08/17 15:27:03;;;;;;;2.37;1.93;;;;;;;33.85;31.41;95665.63;10527064;28;20744;-74
2022/08/17 15:32:03;;;;;;;4.43;2.25;;;;;;;32.80;31.40;95584.06;10527672;28;20544;-75
2022/08/17 15:37:04;;;;;;;8.10;2.30;;;;;;;33.60;31.50;95642.97;10524915;28;20209;-74
2022/08/17 15:42:04;;;;;;;4.53;2.33;;;;;;;34.26;30.21;95623.22;10529604;28;20443;-74
2022/08/17 15:47:04;;;;;;;5.03;2.15;;;;;;;34.52;30.08;95640.38;10527796;28;20210;-74
2022/08/17 15:52:15;;;;;;;3.33;2.30;;;;;;;34.15;30.80;95640.25;10529557;28;20186;-74
2022/08/17 15:57:16;;;;;;;5.85;2.00;;;;;;;34.34;31.49;95670.47;10530468;28;20475;-74
2022/08/17 16:02:24;;;;;;;3.30;2.42;;;;;;;33.81;31.41;95631.31;10530185;28;20678;-74
2022/08/17 16:07:24;;;;;;;7.00;2.25;;;;;;;34.06;30.79;95624.84;10529653;28;20216;-74
2022/08/17 16:12:25;;;;;;;7.40;2.00;;;;;;;34.17;30.41;95595.31;10530649;28;20193;-74
2022/08/17 16:17:26;;;;;;;6.22;2.42;;;;;;;33.74;30.13;95580.25;10530043;28;20432;-75
2022/08/17 16:22:31;;;;;;;6.82;2.22;;;;;;;32.72;32.74;95604.69;10517116;28;20877;-74
2022/08/17 16:27:31;;;;;;;5.97;2.25;;;;;;;30.10;36.42;95597.13;10538093;28;20760;-74
2022/08/17 16:32:32;;;;;;;3.17;2.47;;;;;;;29.61;38.22;95656.31;10538692;28;20232;-74
2022/08/17 16:37:32;;;;;;;6.30;2.60;;;;;;;29.40;40.20;95730.75;10538129;28;20202;-74
2022/08/17 16:42:35;;;;;;;4.20;2.35;;;;;;;30.30;43.07;95863.31;10540076;28;20486;-74
2022/08/17 16:47:36;;;;;;;2.35;2.15;;;;;;;29.58;42.79;95815.38;10539741;28;20211;-75
2022/08/17 16:52:37;;;;;;;12.07;5.53;;;;;;;28.66;47.23;95904.88;10538731;28;20617;-74
2022/08/17 16:57:37;;;;;;;5.65;4.80;;;;;;;26.68;51.04;95953.97;10538662;28;20282;-74
2022/08/17 17:02:41;;;;;;;6.15;4.93;;;;;;;27.39;48.59;95931.09;10538863;28;20224;-75
2022/08/17 17:07:49;;;;;;;3.10;2.65;;;;;;;27.11;49.92;95951.50;10519964;28;20210;-75
2022/08/17 17:12:51;;;;;;;8.10;4.40;;;;;;;26.28;53.27;96006.75;10520144;28;20190;-75
2022/08/17 17:17:52;;;;;;;4.32;3.42;;;;;;;25.75;54.13;96020.56;10519749;28;20580;-74
2022/08/17 17:23:02;;;;;;;3.13;2.70;;;;;;;25.67;54.47;96024.59;10510075;28;20191;-75
2022/08/17 17:28:07;;;;;;;6.20;2.83;;;;;;;24.89;57.32;96055.09;10477015;28;20223;-74
2022/08/17 17:33:17;;;;;;;3.88;3.22;;;;;;;24.90;56.79;96048.63;10476672;28;20184;-75
2022/08/17 17:38:29;;;;;;;7.05;3.13;;;;;;;24.71;56.42;96032.25;10477466;28;20196;-74
2022/08/17 17:43:30;;;;;;;9.65;3.60;;;;;;;24.20;59.52;96081.81;10477793;28;20205;-74
2022/08/17 17:48:30;;;;;;;9.25;3.50;;;;;;;23.90;61.35;96111.84;10495969;28;20712;-75
2022/08/17 17:53:41;;;;;;;6.25;3.35;;;;;;;23.87;60.99;96098.97;10478528;28;20719;-75
2022/08/17 17:59:21;;;;;;;7.55;4.00;;;;;;;23.73;61.57;96106.59;10477847;28;20241;-74
2022/08/17 18:04:32;;;;;;;9.43;3.72;;;;;;;23.62;62.44;96121.75;10494898;28;20262;-75
2022/08/17 18:10:03;;;;;;;6.00;3.50;;;;;;;23.38;62.80;96109.78;10477047;28;20214;-76
2022/08/17 18:15:19;;;;;;;7.20;3.85;;;;;;;23.03;63.95;96117.13;10495267;28;20222;-76
2022/08/17 18:20:22;;;;;;;7.78;3.75;;;;;;;22.93;64.20;96115.16;10508377;28;20532;-76
2022/08/17 18:25:39;;;;;;;8.65;4.55;;;;;;;22.79;64.02;96117.41;10534093;28;20553;-74
2022/08/17 18:30:39;;;;;;;8.57;4.53;;;;;;;22.75;63.96;96115.50;10531856;28;20244;-74
2022/08/17 18:35:49;;;;;;;5.18;4.10;;;;;;;22.44;65.36;96123.91;10517495;28;20713;-75
2022/08/17 18:41:02;;;;;;;7.80;4.00;;;;;;;22.30;65.78;96116.47;10535185;28;20218;-75
2022/08/17 18:46:23;;;;;;;10.48;3.88;;;;;;;22.08;66.62;96134.06;10532488;28;20195;-76
2022/08/17 18:51:38;;;;;;;5.47;3.63;;;;;;;21.87;67.72;96137.47;10531284;28;20634;-75
2022/08/17 18:56:47;;;;;;;5.68;4.13;;;;;;;21.62;69.24;96149.31;10541093;28;20257;-75
2022/08/17 19:02:19;;;;;;;4.72;4.05;;;;;;;21.52;69.71;96147.28;10521569;28;21006;-74
2022/08/17 19:07:19;;;;;;;7.90;5.18;;;;;;;21.33;70.30;96141.34;10516141;28;20229;-75
2022/08/17 19:12:32;;;;;;;7.70;4.00;;;;;;;21.15;71.15;96141.53;10534339;28;20287;-75
2022/08/17 19:17:46;;;;;;;4.60;4.20;;;;;;;21.02;71.56;96139.94;10533843;28;20187;-75
2022/08/17 19:23:11;;;;;;;5.55;3.97;;;;;;;20.88;72.46;96143.94;10515613;28;20251;-76
2022/08/17 19:28:26;;;;;;;8.93;6.10;;;;;;;20.76;72.18;96128.78;10533814;28;20226;-75
2022/08/17 19:33:28;;;;;;;7.00;4.68;;;;;;;20.71;72.31;96128.69;10515509;28;20196;-76
2022/08/17 19:38:42;;;;;;;8.93;5.40;;;;;;;20.56;72.78;96136.34;10515278;28;20268;-74
2022/08/17 19:44:05;;;;;;;6.82;4.18;;;;;;;20.63;72.33;96121.84;10533128;28;20194;-75
2022/08/17 19:49:15;;;;;;;8.40;4.10;;;;;;;20.56;72.50;96123.03;10515588;28;20210;-76
2022/08/17 19:54:27;;;;;;;149.13;100.05;;;;;;;20.35;73.52;96132.44;10515329;28;20602;-76
2022/08/17 19:59:37;;;;;;;5.57;3.80;;;;;;;20.21;74.45;96139.84;10522523;28;20187;-74
2022/08/17 20:04:40;;;;;;;6.15;3.70;;;;;;;20.15;74.44;96130.91;10540941;28;20194;-74
2022/08/17 20:09:46;;;;;;;5.97;3.97;;;;;;;20.06;74.80;96113.69;10523277;28;20229;-76
2022/08/17 20:14:51;;;;;;;7.90;3.78;;;;;;;20.03;74.74;96107.00;10522909;28;20665;-76
2022/08/17 20:19:59;;;;;;;6.72;4.13;;;;;;;19.92;75.28;96111.28;10522431;28;20170;-75
2022/08/17 20:25:10;;;;;;;8.07;3.60;;;;;;;19.75;76.22;96126.25;10539993;28;20191;-76
2022/08/17 20:30:31;;;;;;;6.40;3.95;;;;;;;19.76;76.13;96117.25;10538560;28;20361;-76
2022/08/17 20:35:35;;;;;;;6.10;3.85;;;;;;;19.67;76.67;96124.75;10522464;28;20230;-75
2022/08/17 20:40:39;;;;;;;8.18;4.00;;;;;;;19.59;76.99;96128.53;10520838;28;20225;-76
2022/08/17 20:45:39;;;;;;;6.38;4.18;;;;;;;19.47;77.82;96129.56;10541007;28;20221;-74
2022/08/17 20:50:44;;;;;;;4.28;3.85;;;;;;;19.29;79.05;96133.09;10540820;28;20218;-76
2022/08/17 20:55:48;;;;;;;7.18;4.00;;;;;;;19.19;79.57;96126.47;10514235;28;20534;-76
2022/08/17 21:01:11;;;;;;;5.75;4.13;;;;;;;19.30;78.78;96124.88;10519672;28;20230;-75
2022/08/17 21:13:12;;;;;;;7.32;3.97;;;;;;;19.08;80.29;96124.56;10371960;28;20653;-75
2022/08/17 21:31:07;;;;;;;6.80;4.35;;;;;;;18.89;81.74;96159.09;10372188;28;20620;-77
2022/08/17 21:36:10;;;;;;;10.13;4.22;;;;;;;18.71;83.06;96173.19;10458040;28;20283;-75
2022/08/17 21:41:21;;;;;;;6.40;4.45;;;;;;;18.63;83.61;96164.69;10538722;28;20602;-74
2022/08/17 21:46:38;;;;;;;6.38;4.00;;;;;;;18.78;82.59;96159.03;10519831;28;20646;-76
2022/08/17 21:51:44;;;;;;;4.57;4.13;;;;;;;18.65;83.22;96173.25;10519030;28;20206;-75
2022/08/17 21:56:46;;;;;;;4.70;4.22;;;;;;;18.66;83.06;96164.25;10515977;28;20222;-76
2022/08/17 22:01:54;;;;;;;5.45;4.30;;;;;;;18.70;82.81;96174.22;10536148;28;20244;-76
2022/08/17 22:06:56;;;;;;;5.65;4.18;;;;;;;18.49;84.41;96188.72;10518373;28;20209;-76
2022/08/17 22:12:00;;;;;;;4.38;3.88;;;;;;;18.38;85.24;96170.03;10537714;28;20553;-76
2022/08/17 22:17:05;;;;;;;6.93;4.25;;;;;;;18.46;84.59;96162.63;10522996;28;20242;-75
2022/08/17 22:22:09;;;;;;;5.53;4.70;;;;;;;18.50;83.96;96166.47;10546789;28;20684;-75
2022/08/17 22:27:10;;;;;;;8.13;4.35;;;;;;;18.40;84.62;96158.19;10537807;28;20269;-74
2022/08/17 22:32:30;;;;;;;5.30;3.83;;;;;;;18.37;84.91;96174.53;10517939;28;20187;-75
2022/08/17 22:37:30;;;;;;;8.05;4.38;;;;;;;18.37;84.74;96169.25;10518062;28;20296;-75
2022/08/17 22:42:31;;;;;;;5.93;4.25;;;;;;;18.41;84.59;96166.94;10535681;28;20703;-74
2022/08/17 22:47:39;;;;;;;6.40;4.75;;;;;;;18.42;84.29;96172.03;10536234;28;20621;-76
2022/08/17 23:03:28;;;;;;;7.47;5.05;;;;;;;18.44;84.42;96159.38;10535157;28;20183;-75
2022/08/17 23:08:29;;;;;;;9.23;5.00;;;;;;;18.38;85.04;96154.13;10534772;28;20226;-76
2022/08/17 23:13:32;;;;;;;6.15;4.60;;;;;;;18.41;84.72;96145.72;10534996;28;20651;-76
2022/08/17 23:18:32;;;;;;;5.78;4.68;;;;;;;18.34;85.33;96154.56;10535038;28;20205;-76
2022/08/17 23:23:33;;;;;;;10.00;4.70;;;;;;;18.31;85.59;96143.59;10534476;28;20599;-75
2022/08/17 23:28:36;;;;;;;5.93;4.60;;;;;;;18.24;86.25;96159.59;10499655;28;20244;-75
2022/08/17 23:33:37;;;;;;;5.80;4.90;;;;;;;18.17;86.92;96159.63;10516714;28;20552;-75
2022/08/17 23:38:37;;;;;;;5.90;5.20;;;;;;;18.28;86.41;96150.16;10515902;28;20292;-76
2022/08/17 23:43:38;;;;;;;9.95;4.75;;;;;;;18.26;86.63;96154.06;10512959;28;20331;-74
2022/08/17 23:48:39;;;;;;;5.05;4.50;;;;;;;18.24;86.90;96159.59;10533171;28;20218;-74
2022/08/17 23:53:45;;;;;;;6.75;3.90;;;;;;;18.33;86.11;96141.53;10533516;28;20732;-74
2022/08/17 23:58:45;;;;;;;6.75;4.57;;;;;;;18.29;86.01;96135.88;10533028;28;20191;-75
